sensor_id;sensor_type;location;lat;lon;timestamp;P1;durP1;ratioP1;P2;durP2;ratioP2
35225;SDS011;21813;49.686;21.766;2022-07-29T00:00:19;18.80;;;10.77;;
35225;SDS011;21813;49.686;21.766;2022-07-29T00:03:17;20.25;;;11.63;;
35225;SDS011;21813;49.686;21.766;2022-07-29T00:06:05;15.55;;;10.60;;
35225;SDS011;21813;49.686;21.766;2022-07-29T00:09:27;18.88;;;10.82;;
35225;SDS011;21813;49.686;21.766;2022-07-29T00:15:37;14.68;;;11.20;;
35225;SDS011;21813;49.686;21.766;2022-07-29T00:18:06;14.40;;;10.30;;
35225;SDS011;21813;49.686;21.766;2022-07-29T00:23:50;15.48;;;11.15;;
35225;SDS011;21813;49.686;21.766;2022-07-29T00:26:24;18.17;;;11.63;;
35225;SDS011;21813;49.686;21.766;2022-07-29T00:29:48;15.73;;;12.20;;
35225;SDS011;21813;49.686;21.766;2022-07-29T00:32:59;17.52;;;12.13;;
35225;SDS011;21813;49.686;21.766;2022-07-29T00:38:51;15.38;;;11.57;;
35225;SDS011;21813;49.686;21.766;2022-07-29T00:41:43;16.27;;;11.45;;
35225;SDS011;21813;49.686;21.766;2022-07-29T00:44:14;19.20;;;11.80;;
35225;SDS011;21813;49.686;21.766;2022-07-29T00:46:42;18.48;;;12.85;;
35225;SDS011;21813;49.686;21.766;2022-07-29T00:49:10;16.65;;;12.05;;
35225;SDS011;21813;49.686;21.766;2022-07-29T00:55:14;15.90;;;11.52;;
35225;SDS011;21813;49.686;21.766;2022-07-29T00:57:43;15.65;;;11.38;;
35225;SDS011;21813;49.686;21.766;2022-07-29T01:00:10;16.33;;;11.88;;
35225;SDS011;21813;49.686;21.766;2022-07-29T01:02:39;16.88;;;11.80;;
35225;SDS011;21813;49.686;21.766;2022-07-29T02:25:30;16.13;;;11.57;;
35225;SDS011;21813;49.686;21.766;2022-07-29T04:11:14;15.43;;;10.02;;
35225;SDS011;21813;49.686;21.766;2022-07-29T04:27:49;9.98;;;8.65;;
35225;SDS011;21813;49.686;21.766;2022-07-29T05:32:08;8.27;;;4.57;;
35225;SDS011;21813;49.686;21.766;2022-07-29T05:34:35;6.63;;;5.00;;
35225;SDS011;21813;49.686;21.766;2022-07-29T05:37:01;12.80;;;5.45;;
35225;SDS011;21813;49.686;21.766;2022-07-29T05:39:48;8.38;;;4.43;;
35225;SDS011;21813;49.686;21.766;2022-07-29T05:54:13;9.27;;;4.20;;
35225;SDS011;21813;49.686;21.766;2022-07-29T05:56:41;8.27;;;4.20;;
35225;SDS011;21813;49.686;21.766;2022-07-29T05:59:09;9.02;;;4.55;;
35225;SDS011;21813;49.686;21.766;2022-07-29T06:52:40;8.90;;;4.38;;
35225;SDS011;21813;49.686;21.766;2022-07-29T08:42:19;4.53;;;3.17;;
35225;SDS011;21813;49.686;21.766;2022-07-29T09:00:29;4.32;;;2.42;;
35225;SDS011;21813;49.686;21.766;2022-07-29T09:03:09;7.00;;;2.92;;
35225;SDS011;21813;49.686;21.766;2022-07-29T09:16:44;3.25;;;2.90;;
35225;SDS011;21813;49.686;21.766;2022-07-29T09:23:34;2.38;;;2.15;;
35225;SDS011;21813;49.686;21.766;2022-07-29T09:26:04;5.18;;;2.42;;
35225;SDS011;21813;49.686;21.766;2022-07-29T09:28:30;3.90;;;2.20;;
35225;SDS011;21813;49.686;21.766;2022-07-29T09:31:06;4.22;;;2.40;;
35225;SDS011;21813;49.686;21.766;2022-07-29T10:07:17;5.18;;;2.97;;
35225;SDS011;21813;49.686;21.766;2022-07-29T10:13:04;5.47;;;3.13;;
35225;SDS011;21813;49.686;21.766;2022-07-29T10:18:25;4.57;;;3.15;;
35225;SDS011;21813;49.686;21.766;2022-07-29T10:20:53;8.05;;;2.55;;
35225;SDS011;21813;49.686;21.766;2022-07-29T10:46:36;7.15;;;3.08;;
35225;SDS011;21813;49.686;21.766;2022-07-29T10:49:13;10.32;;;3.03;;
35225;SDS011;21813;49.686;21.766;2022-07-29T11:29:21;3.10;;;2.42;;
35225;SDS011;21813;49.686;21.766;2022-07-29T11:32:12;4.45;;;2.47;;
35225;SDS011;21813;49.686;21.766;2022-07-29T11:34:47;5.43;;;2.17;;
35225;SDS011;21813;49.686;21.766;2022-07-29T11:37:28;3.20;;;2.50;;
35225;SDS011;21813;49.686;21.766;2022-07-29T12:31:51;3.17;;;2.00;;
35225;SDS011;21813;49.686;21.766;2022-07-29T12:34:59;3.20;;;2.47;;
35225;SDS011;21813;49.686;21.766;2022-07-29T12:38:32;5.00;;;2.38;;
35225;SDS011;21813;49.686;21.766;2022-07-29T12:41:13;4.93;;;2.53;;
35225;SDS011;21813;49.686;21.766;2022-07-29T12:50:07;6.25;;;2.40;;
35225;SDS011;21813;49.686;21.766;2022-07-29T13:01:39;6.75;;;2.40;;
35225;SDS011;21813;49.686;21.766;2022-07-29T13:14:47;7.20;;;2.60;;
35225;SDS011;21813;49.686;21.766;2022-07-29T13:23:46;6.43;;;2.75;;
35225;SDS011;21813;49.686;21.766;2022-07-29T13:26:42;7.82;;;2.47;;
35225;SDS011;21813;49.686;21.766;2022-07-29T13:47:23;4.88;;;2.72;;
35225;SDS011;21813;49.686;21.766;2022-07-29T13:54:47;6.03;;;3.00;;
35225;SDS011;21813;49.686;21.766;2022-07-29T14:13:18;4.75;;;2.60;;
35225;SDS011;21813;49.686;21.766;2022-07-29T14:18:38;3.67;;;2.85;;
35225;SDS011;21813;49.686;21.766;2022-07-29T14:21:04;4.80;;;2.85;;
35225;SDS011;21813;49.686;21.766;2022-07-29T14:23:31;4.20;;;2.70;;
35225;SDS011;21813;49.686;21.766;2022-07-29T14:26:10;3.95;;;2.83;;
35225;SDS011;21813;49.686;21.766;2022-07-29T14:28:41;6.88;;;3.08;;
35225;SDS011;21813;49.686;21.766;2022-07-29T14:31:25;7.35;;;3.00;;
35225;SDS011;21813;49.686;21.766;2022-07-29T14:33:52;3.80;;;2.63;;
35225;SDS011;21813;49.686;21.766;2022-07-29T14:36:22;7.15;;;2.72;;
35225;SDS011;21813;49.686;21.766;2022-07-29T14:50:58;6.00;;;2.88;;
35225;SDS011;21813;49.686;21.766;2022-07-29T14:53:41;8.50;;;2.45;;
35225;SDS011;21813;49.686;21.766;2022-07-29T14:56:52;9.00;;;2.72;;
35225;SDS011;21813;49.686;21.766;2022-07-29T15:00:36;5.95;;;2.72;;
35225;SDS011;21813;49.686;21.766;2022-07-29T15:05:42;8.07;;;3.17;;
35225;SDS011;21813;49.686;21.766;2022-07-29T15:08:47;4.05;;;2.92;;
35225;SDS011;21813;49.686;21.766;2022-07-29T15:11:16;4.15;;;2.83;;
35225;SDS011;21813;49.686;21.766;2022-07-29T18:27:04;16.08;;;5.45;;
35225;SDS011;21813;49.686;21.766;2022-07-29T18:35:14;15.52;;;6.05;;
35225;SDS011;21813;49.686;21.766;2022-07-29T18:43:36;13.02;;;6.30;;
35225;SDS011;21813;49.686;21.766;2022-07-29T18:46:29;12.77;;;4.95;;
35225;SDS011;21813;49.686;21.766;2022-07-29T18:49:21;14.48;;;6.30;;
35225;SDS011;21813;49.686;21.766;2022-07-29T18:59:41;14.30;;;8.40;;
35225;SDS011;21813;49.686;21.766;2022-07-29T19:02:10;12.60;;;7.38;;
35225;SDS011;21813;49.686;21.766;2022-07-29T19:07:25;13.88;;;6.53;;
35225;SDS011;21813;49.686;21.766;2022-07-29T19:10:20;16.63;;;6.18;;
35225;SDS011;21813;49.686;21.766;2022-07-29T19:15:27;7.55;;;4.00;;
35225;SDS011;21813;49.686;21.766;2022-07-29T19:18:23;7.15;;;4.47;;
35225;SDS011;21813;49.686;21.766;2022-07-29T19:21:04;6.90;;;4.45;;
35225;SDS011;21813;49.686;21.766;2022-07-29T19:23:30;8.00;;;4.28;;
35225;SDS011;21813;49.686;21.766;2022-07-29T19:29:59;7.15;;;4.38;;
35225;SDS011;21813;49.686;21.766;2022-07-29T19:32:57;7.95;;;5.07;;
35225;SDS011;21813;49.686;21.766;2022-07-29T19:46:21;8.02;;;4.18;;
35225;SDS011;21813;49.686;21.766;2022-07-29T19:49:41;8.13;;;4.72;;
35225;SDS011;21813;49.686;21.766;2022-07-29T19:58:41;9.82;;;5.68;;
35225;SDS011;21813;49.686;21.766;2022-07-29T20:24:02;5.72;;;3.92;;
35225;SDS011;21813;49.686;21.766;2022-07-29T20:31:54;6.80;;;4.97;;
35225;SDS011;21813;49.686;21.766;2022-07-29T20:34:26;8.15;;;5.57;;
35225;SDS011;21813;49.686;21.766;2022-07-29T20:56:11;9.60;;;5.38;;
35225;SDS011;21813;49.686;21.766;2022-07-29T20:58:48;14.18;;;5.53;;
35225;SDS011;21813;49.686;21.766;2022-07-29T21:01:23;8.27;;;5.35;;
35225;SDS011;21813;49.686;21.766;2022-07-29T21:04:16;10.05;;;5.97;;
35225;SDS011;21813;49.686;21.766;2022-07-29T21:06:59;14.38;;;5.93;;
35225;SDS011;21813;49.686;21.766;2022-07-29T21:24:10;9.93;;;6.53;;
35225;SDS011;21813;49.686;21.766;2022-07-29T21:26:59;11.23;;;6.82;;
35225;SDS011;21813;49.686;21.766;2022-07-29T21:33:05;9.25;;;6.68;;
35225;SDS011;21813;49.686;21.766;2022-07-29T21:35:39;6.88;;;6.05;;
35225;SDS011;21813;49.686;21.766;2022-07-29T21:38:08;10.10;;;6.22;;
35225;SDS011;21813;49.686;21.766;2022-07-29T21:40:58;7.90;;;6.22;;
35225;SDS011;21813;49.686;21.766;2022-07-29T21:43:48;12.52;;;5.70;;
35225;SDS011;21813;49.686;21.766;2022-07-29T21:51:01;5.55;;;4.72;;
35225;SDS011;21813;49.686;21.766;2022-07-29T21:53:28;7.68;;;4.93;;
35225;SDS011;21813;49.686;21.766;2022-07-29T21:55:59;7.38;;;5.25;;
35225;SDS011;21813;49.686;21.766;2022-07-29T21:58:24;5.20;;;4.03;;
35225;SDS011;21813;49.686;21.766;2022-07-29T22:00:55;7.95;;;4.30;;
35225;SDS011;21813;49.686;21.766;2022-07-29T22:03:22;5.85;;;3.78;;
35225;SDS011;21813;49.686;21.766;2022-07-29T22:05:53;4.55;;;3.60;;
35225;SDS011;21813;49.686;21.766;2022-07-29T22:08:27;4.50;;;4.10;;
35225;SDS011;21813;49.686;21.766;2022-07-29T22:10:57;5.32;;;3.63;;
35225;SDS011;21813;49.686;21.766;2022-07-29T22:13:28;4.43;;;3.60;;
35225;SDS011;21813;49.686;21.766;2022-07-29T22:18:23;5.18;;;3.65;;
35225;SDS011;21813;49.686;21.766;2022-07-29T22:23:19;5.57;;;3.80;;
35225;SDS011;21813;49.686;21.766;2022-07-29T22:25:50;5.57;;;3.60;;
35225;SDS011;21813;49.686;21.766;2022-07-29T22:28:18;5.30;;;3.70;;
35225;SDS011;21813;49.686;21.766;2022-07-29T22:30:52;4.43;;;3.97;;
35225;SDS011;21813;49.686;21.766;2022-07-29T22:33:24;4.78;;;3.78;;
35225;SDS011;21813;49.686;21.766;2022-07-29T22:35:49;4.68;;;4.10;;
35225;SDS011;21813;49.686;21.766;2022-07-29T22:38:16;5.00;;;3.40;;
35225;SDS011;21813;49.686;21.766;2022-07-29T22:40:43;4.38;;;3.70;;
35225;SDS011;21813;49.686;21.766;2022-07-29T22:43:09;3.97;;;3.53;;
35225;SDS011;21813;49.686;21.766;2022-07-29T22:45:34;4.55;;;3.65;;
35225;SDS011;21813;49.686;21.766;2022-07-29T22:48:03;14.13;;;3.78;;
35225;SDS011;21813;49.686;21.766;2022-07-29T22:50:29;4.38;;;3.83;;
35225;SDS011;21813;49.686;21.766;2022-07-29T22:52:55;5.25;;;3.47;;
35225;SDS011;21813;49.686;21.766;2022-07-29T22:55:22;5.22;;;3.85;;
35225;SDS011;21813;49.686;21.766;2022-07-29T22:57:48;6.97;;;3.65;;
35225;SDS011;21813;49.686;21.766;2022-07-29T23:00:14;5.47;;;3.53;;
35225;SDS011;21813;49.686;21.766;2022-07-29T23:02:42;5.47;;;3.75;;
35225;SDS011;21813;49.686;21.766;2022-07-29T23:05:08;4.25;;;3.83;;
35225;SDS011;21813;49.686;21.766;2022-07-29T23:07:34;4.78;;;4.28;;
35225;SDS011;21813;49.686;21.766;2022-07-29T23:10:02;5.72;;;4.63;;
35225;SDS011;21813;49.686;21.766;2022-07-29T23:12:30;6.10;;;3.97;;
35225;SDS011;21813;49.686;21.766;2022-07-29T23:14:56;7.10;;;4.35;;
35225;SDS011;21813;49.686;21.766;2022-07-29T23:17:23;5.90;;;4.78;;
35225;SDS011;21813;49.686;21.766;2022-07-29T23:19:49;6.47;;;4.32;;
35225;SDS011;21813;49.686;21.766;2022-07-29T23:22:15;5.53;;;4.65;;
35225;SDS011;21813;49.686;21.766;2022-07-29T23:24:51;5.70;;;4.30;;
35225;SDS011;21813;49.686;21.766;2022-07-29T23:27:17;4.60;;;4.20;;
35225;SDS011;21813;49.686;21.766;2022-07-29T23:29:43;5.35;;;3.97;;
35225;SDS011;21813;49.686;21.766;2022-07-29T23:32:12;6.45;;;4.47;;
35225;SDS011;21813;49.686;21.766;2022-07-29T23:34:37;5.10;;;4.57;;
35225;SDS011;21813;49.686;21.766;2022-07-29T23:37:03;5.80;;;4.65;;
35225;SDS011;21813;49.686;21.766;2022-07-29T23:39:35;5.53;;;4.22;;
35225;SDS011;21813;49.686;21.766;2022-07-29T23:42:01;6.57;;;5.00;;
35225;SDS011;21813;49.686;21.766;2022-07-29T23:44:28;6.13;;;4.15;;
35225;SDS011;21813;49.686;21.766;2022-07-29T23:46:55;6.05;;;5.03;;
35225;SDS011;21813;49.686;21.766;2022-07-29T23:49:22;10.65;;;6.05;;
35225;SDS011;21813;49.686;21.766;2022-07-29T23:51:48;7.32;;;5.53;;
35225;SDS011;21813;49.686;21.766;2022-07-29T23:54:15;5.80;;;5.22;;
35225;SDS011;21813;49.686;21.766;2022-07-29T23:56:40;7.40;;;4.88;;
35225;SDS011;21813;49.686;21.766;2022-07-29T23:59:06;7.50;;;5.40;;
